Check out our new BloomSky Weather System.

Active alerts


No alerts


Thunder radar  blitzortung!


Rain radar more information rain snow radar


Visit our other weather sites:

Template documentation
and downloads

And another site



Weather Underground History page Text

Daily Summary for October 20, 2017 Units:  English    Metric   Both
« Previous Day
Next Day »
Daily Weekly Monthly Yearly Custom
  High: Low: Average:
Temperature: 81.0 °F 68.0 °F 74 °F
Dew Point: 73.9 °F 62.6 °F 70.2 °F
Humidity: 97 % 75 % 88 %
Wind Speed: 12.0 mph 0.0 mph 2.4 mph
Wind Gust: 16.0 mph - -
Wind:- - ESE
Pressure: 30.09 in 29.93 in -
Precipitation: 0.07 in    
Historical Graphs
 
 
Tabular Data for October 20, 2017
Time Temperature Dew Point Pressure Wind Wind Speed Wind Gust Humidity Rainfall Rate (Hourly)
00:03 71.1 °F 63.1 °F 30.09 in Calm   6.0 mph 76 % 0.00 in
00:08 71.1 °F 63.1 °F 30.09 in Calm   4.0 mph 76 % 0.00 in
00:13 70.9 °F 63.0 °F 30.09 in ENE 1.0 mph 2.0 mph 76 % 0.00 in
00:18 70.9 °F 63.3 °F 30.08 in Calm   4.0 mph 77 % 0.00 in
00:23 70.7 °F 63.1 °F 30.09 in ENE 2.0 mph 4.0 mph 77 % 0.00 in
00:28 70.7 °F 63.1 °F 30.09 in Calm   4.0 mph 77 % 0.00 in
00:33 70.5 °F 63.0 °F 30.09 in Calm   4.0 mph 77 % 0.00 in
00:38 70.5 °F 63.3 °F 30.09 in Calm   2.0 mph 78 % 0.00 in
00:43 70.5 °F 63.3 °F 30.09 in Calm   1.0 mph 78 % 0.00 in
00:48 70.5 °F 63.0 °F 30.09 in Calm   1.0 mph 77 % 0.00 in
00:53 70.5 °F 62.6 °F 30.09 in NE 1.0 mph 1.0 mph 76 % 0.00 in
00:58 70.7 °F 62.8 °F 30.08 in Calm   3.0 mph 76 % 0.00 in
01:03 70.7 °F 62.8 °F 30.08 in Calm   3.0 mph 76 % 0.00 in
01:08 70.5 °F 62.6 °F 30.08 in Calm   3.0 mph 76 % 0.00 in
01:13 70.5 °F 63.0 °F 30.08 in Calm   1.0 mph 77 % 0.00 in
01:18 70.3 °F 62.8 °F 30.08 in Calm   1.0 mph 77 % 0.00 in
01:23 70.2 °F 63.3 °F 30.08 in Calm   1.0 mph 79 % 0.00 in
01:28 70.2 °F 63.7 °F 30.08 in Calm   1.0 mph 80 % 0.00 in
01:33 70.2 °F 63.7 °F 30.08 in Calm   1.0 mph 80 % 0.00 in
01:38 70.0 °F 63.5 °F 30.08 in Calm   2.0 mph 80 % 0.00 in
01:43 70.0 °F 63.9 °F 30.07 in Calm   2.0 mph 81 % 0.00 in
01:48 69.8 °F 64.0 °F 30.07 in Calm   2.0 mph 82 % 0.00 in
01:53 69.6 °F 63.9 °F 30.07 in Calm   1.0 mph 82 % 0.00 in
01:58 69.4 °F 64.4 °F 30.07 in Calm   1.0 mph 84 % 0.00 in
02:03 69.4 °F 64.4 °F 30.05 in NW 4.0 mph 4.0 mph 84 % 0.00 in
02:08 69.4 °F 64.4 °F 30.05 in ENE 1.0 mph 6.0 mph 84 % 0.00 in
02:13 69.3 °F 64.2 °F 30.07 in ESE 2.0 mph 6.0 mph 84 % 0.00 in
02:18 69.3 °F 64.9 °F 30.07 in Calm   6.0 mph 86 % 0.00 in
02:23 69.1 °F 64.8 °F 30.06 in Calm   5.0 mph 86 % 0.00 in
02:28 68.7 °F 64.9 °F 30.05 in Calm   3.0 mph 88 % 0.00 in
02:33 68.4 °F 64.6 °F 30.04 in Calm   2.0 mph 88 % 0.00 in
02:38 68.4 °F 64.6 °F 30.05 in Calm   2.0 mph 88 % 0.00 in
02:43 68.2 °F 64.4 °F 30.06 in Calm   2.0 mph 88 % 0.00 in
02:49 68.2 °F 64.4 °F 30.06 in Calm   2.0 mph 88 % 0.00 in
02:54 68.2 °F 64.8 °F 30.04 in North 1.0 mph 1.0 mph 89 % 0.00 in
02:59 68.0 °F 64.6 °F 30.04 in ENE 1.0 mph 4.0 mph 89 % 0.00 in
03:04 68.0 °F 64.4 °F 30.04 in Calm   4.0 mph 88 % 0.00 in
03:09 68.2 °F 64.2 °F 30.04 in Calm   4.0 mph 87 % 0.00 in
03:14 68.2 °F 64.2 °F 30.03 in North 2.0 mph 4.0 mph 87 % 0.00 in
03:19 68.2 °F 64.2 °F 30.03 in Calm   4.0 mph 87 % 0.00 in
03:24 68.4 °F 64.0 °F 30.02 in WNW 1.0 mph 4.0 mph 86 % 0.00 in
03:29 68.4 °F 64.0 °F 30.03 in ENE 3.0 mph 4.0 mph 86 % 0.00 in
03:34 68.4 °F 64.0 °F 30.03 in ENE 2.0 mph 4.0 mph 86 % 0.00 in
03:39 68.4 °F 64.0 °F 30.03 in Calm   3.0 mph 86 % 0.00 in
03:44 68.4 °F 64.0 °F 30.03 in Calm   3.0 mph 86 % 0.00 in
03:49 68.4 °F 64.0 °F 30.03 in Calm   2.0 mph 86 % 0.00 in
03:54 68.4 °F 64.4 °F 30.02 in Calm   2.0 mph 87 % 0.00 in
03:59 68.4 °F 64.4 °F 30.02 in Calm   2.0 mph 87 % 0.00 in
04:04 68.4 °F 64.4 °F 30.02 in Calm   3.0 mph 87 % 0.00 in
04:09 68.4 °F 64.6 °F 30.03 in Calm   3.0 mph 88 % 0.00 in
04:14 68.4 °F 64.6 °F 30.02 in Calm   3.0 mph 88 % 0.00 in
04:19 68.4 °F 64.6 °F 30.02 in Calm   2.0 mph 88 % 0.00 in
04:24 68.4 °F 64.9 °F 30.02 in NNE 1.0 mph 1.0 mph 89 % 0.00 in
04:29 68.4 °F 64.9 °F 30.01 in NE 1.0 mph 2.0 mph 89 % 0.01 in
04:34 68.4 °F 64.9 °F 30.01 in Calm   4.0 mph 89 % 0.01 in
04:39 68.4 °F 65.3 °F 30.01 in East 2.0 mph 4.0 mph 90 % 0.01 in
04:44 68.4 °F 65.3 °F 30.00 in Calm   4.0 mph 90 % 0.01 in
04:49 68.4 °F 65.3 °F 30.00 in Calm   3.0 mph 90 % 0.01 in
04:54 68.5 °F 65.8 °F 30.00 in Calm   4.0 mph 91 % 0.01 in
04:59 68.4 °F 65.7 °F 30.00 in Calm   5.0 mph 91 % 0.01 in
05:04 68.5 °F 65.8 °F 30.01 in ENE 1.0 mph 5.0 mph 91 % 0.01 in
05:09 68.5 °F 66.2 °F 30.01 in Calm   5.0 mph 92 % 0.01 in
05:14 68.5 °F 66.2 °F 30.01 in Calm   3.0 mph 92 % 0.01 in
05:19 68.7 °F 66.4 °F 30.01 in ENE 3.0 mph 5.0 mph 92 % 0.01 in
05:24 68.9 °F 66.6 °F 30.01 in Calm   5.0 mph 92 % 0.00 in
05:29 69.1 °F 66.7 °F 30.01 in East 5.0 mph 7.0 mph 92 % 0.00 in
05:34 69.1 °F 66.7 °F 30.01 in Calm   7.0 mph 92 % 0.00 in
05:39 69.3 °F 66.9 °F 30.01 in ESE 1.0 mph 7.0 mph 92 % 0.00 in
05:44 69.4 °F 67.3 °F 30.02 in South 4.0 mph 6.0 mph 93 % 0.00 in
05:49 69.6 °F 67.5 °F 30.02 in North 2.0 mph 8.0 mph 93 % 0.00 in
05:54 70.0 °F 67.8 °F 30.02 in SE 3.0 mph 8.0 mph 93 % 0.00 in
05:59 70.3 °F 68.5 °F 30.04 in SE 3.0 mph 8.0 mph 94 % 0.00 in
06:04 70.3 °F 68.5 °F 30.04 in SE 2.0 mph 8.0 mph 94 % 0.01 in
06:09 70.5 °F 68.7 °F 30.04 in Calm   8.0 mph 94 % 0.03 in
06:14 70.5 °F 69.1 °F 30.04 in SE 1.0 mph 8.0 mph 95 % 0.05 in
06:19 70.5 °F 69.1 °F 30.04 in SE 3.0 mph 4.0 mph 95 % 0.05 in
06:24 70.5 °F 69.1 °F 30.04 in SSE 2.0 mph 4.0 mph 95 % 0.05 in
06:29 70.5 °F 69.3 °F 30.04 in Calm   4.0 mph 96 % 0.06 in
06:34 70.5 °F 69.3 °F 30.04 in Calm   4.0 mph 96 % 0.06 in
06:39 70.5 °F 69.3 °F 30.04 in SSE 1.0 mph 3.0 mph 96 % 0.06 in
06:44 70.5 °F 69.3 °F 30.04 in Calm   5.0 mph 96 % 0.06 in
06:49 70.5 °F 69.3 °F 30.03 in Calm   5.0 mph 96 % 0.06 in
06:54 70.5 °F 69.3 °F 30.03 in ESE 4.0 mph 5.0 mph 96 % 0.06 in
06:59 70.3 °F 69.1 °F 30.03 in Calm   5.0 mph 96 % 0.06 in
07:04 70.3 °F 69.1 °F 30.03 in ESE 1.0 mph 4.0 mph 96 % 0.05 in
07:09 70.3 °F 69.1 °F 30.03 in Calm   4.0 mph 96 % 0.03 in
07:15 70.2 °F 68.9 °F 30.03 in SE 1.0 mph 3.0 mph 96 % 0.01 in
07:20 70.2 °F 68.9 °F 30.03 in Calm   2.0 mph 96 % 0.01 in
07:25 70.2 °F 68.9 °F 30.03 in SE 1.0 mph 2.0 mph 96 % 0.00 in
07:30 70.2 °F 69.3 °F 30.03 in ESE 1.0 mph 1.0 mph 97 % 0.00 in
07:35 70.2 °F 69.3 °F 30.03 in ESE 2.0 mph 3.0 mph 97 % 0.00 in
07:40 70.2 °F 69.3 °F 30.03 in East 3.0 mph 3.0 mph 97 % 0.00 in
07:45 70.3 °F 69.4 °F 30.03 in Calm   7.0 mph 97 % 0.00 in
07:50 70.3 °F 69.4 °F 30.02 in Calm   7.0 mph 97 % 0.00 in
07:55 70.3 °F 69.4 °F 30.03 in Calm   7.0 mph 97 % 0.00 in
08:00 70.2 °F 68.9 °F 30.03 in East 3.0 mph 8.0 mph 96 % 0.00 in
08:05 70.3 °F 69.1 °F 30.03 in ENE 3.0 mph 8.0 mph 96 % 0.00 in
08:10 70.3 °F 69.1 °F 30.03 in Calm   8.0 mph 96 % 0.00 in
08:15 70.3 °F 69.1 °F 30.03 in NE 1.0 mph 6.0 mph 96 % 0.00 in
08:20 70.5 °F 69.1 °F 30.03 in NNE 2.0 mph 6.0 mph 95 % 0.00 in
08:25 70.5 °F 69.1 °F 30.03 in East 1.0 mph 4.0 mph 95 % 0.00 in
08:30 70.7 °F 69.3 °F 30.03 in Calm   3.0 mph 95 % 0.00 in
08:35 70.9 °F 69.4 °F 30.03 in ESE 1.0 mph 3.0 mph 95 % 0.00 in
08:40 71.1 °F 69.6 °F 30.03 in Calm   3.0 mph 95 % 0.00 in
08:45 71.4 °F 70.0 °F 30.03 in East 1.0 mph 3.0 mph 95 % 0.00 in
08:50 72.0 °F 70.2 °F 30.04 in SE 2.0 mph 5.0 mph 94 % 0.00 in
08:55 72.1 °F 70.3 °F 30.04 in Calm   5.0 mph 94 % 0.00 in
09:00 72.3 °F 70.2 °F 30.04 in SE 1.0 mph 5.0 mph 93 % 0.00 in
09:05 72.7 °F 70.9 °F 30.04 in ESE 1.0 mph 5.0 mph 94 % 0.00 in
09:07 72.7 °F 70.9 °F 30.04 in SSW 1.0 mph 5.0 mph 94 % 0.00 in
09:12 72.9 °F 71.1 °F 30.04 in SE 2.0 mph 6.0 mph 94 % 0.00 in
09:17 73.0 °F 71.2 °F 30.05 in SSE 2.0 mph 8.0 mph 94 % 0.00 in
09:22 73.4 °F 71.6 °F 30.05 in East 2.0 mph 8.0 mph 94 % 0.00 in
09:27 73.8 °F 72.0 °F 30.06 in East 2.0 mph 8.0 mph 94 % 0.00 in
09:32 74.1 °F 72.3 °F 30.06 in SE 4.0 mph 7.0 mph 94 % 0.00 in
09:33 74.1 °F 72.3 °F 30.06 in SSE 5.0 mph 7.0 mph 94 % 0.00 in
09:38 74.5 °F 72.3 °F 30.06 in SE 3.0 mph 12.0 mph 93 % 0.00 in
09:43 74.8 °F 72.7 °F 30.06 in ESE 2.0 mph 12.0 mph 93 % 0.00 in
09:48 75.0 °F 72.9 °F 30.06 in NE 5.0 mph 12.0 mph 93 % 0.00 in
09:53 75.0 °F 72.5 °F 30.06 in East 4.0 mph 9.0 mph 92 % 0.00 in
09:58 75.0 °F 72.5 °F 30.06 in ESE 5.0 mph 10.0 mph 92 % 0.00 in
10:03 75.4 °F 72.9 °F 30.06 in ESE 4.0 mph 16.0 mph 92 % 0.00 in
10:08 75.4 °F 72.5 °F 30.06 in East 6.0 mph 16.0 mph 91 % 0.00 in
10:13 75.4 °F 72.5 °F 30.06 in NNE 4.0 mph 16.0 mph 91 % 0.00 in
10:18 75.4 °F 72.5 °F 30.06 in NE 5.0 mph 16.0 mph 91 % 0.00 in
10:23 75.2 °F 72.3 °F 30.06 in East 5.0 mph 16.0 mph 91 % 0.00 in
10:28 75.7 °F 73.2 °F 30.05 in SSE 2.0 mph 15.0 mph 92 % 0.00 in
10:33 76.6 °F 72.9 °F 30.05 in ENE 7.0 mph 15.0 mph 88 % 0.00 in
10:38 76.8 °F 72.7 °F 30.05 in North 5.0 mph 15.0 mph 87 % 0.00 in
10:43 77.4 °F 73.2 °F 30.04 in SE 2.0 mph 10.0 mph 87 % 0.00 in
10:48 78.1 °F 72.9 °F 30.04 in East 4.0 mph 10.0 mph 84 % 0.00 in
10:53 77.7 °F 71.8 °F 30.04 in SE 3.0 mph 12.0 mph 82 % 0.00 in
10:58 78.3 °F 72.7 °F 30.04 in ESE 4.0 mph 12.0 mph 83 % 0.00 in
11:03 78.8 °F 72.9 °F 30.04 in Calm   12.0 mph 82 % 0.00 in
11:08 79.3 °F 72.3 °F 30.04 in ESE 3.0 mph 10.0 mph 79 % 0.00 in
11:13 79.7 °F 72.7 °F 30.03 in ENE 2.0 mph 10.0 mph 79 % 0.00 in
11:18 79.9 °F 72.3 °F 30.03 in ESE 4.0 mph 10.0 mph 78 % 0.00 in
11:23 80.1 °F 72.5 °F 30.03 in NW 2.0 mph 10.0 mph 78 % 0.00 in
11:28 80.8 °F 72.5 °F 30.03 in Calm   6.0 mph 76 % 0.00 in
11:33 80.8 °F 72.5 °F 30.03 in SE 2.0 mph 7.0 mph 76 % 0.00 in
11:38 81.0 °F 72.3 °F 30.03 in ENE 4.0 mph 7.0 mph 75 % 0.00 in
11:43 80.2 °F 72.3 °F 30.03 in SE 7.0 mph 10.0 mph 77 % 0.00 in
11:48 79.5 °F 72.5 °F 30.03 in ESE 5.0 mph 11.0 mph 79 % 0.00 in
11:53 79.2 °F 72.5 °F 30.03 in ESE 5.0 mph 11.0 mph 80 % 0.00 in
11:58 79.0 °F 73.0 °F 30.03 in SE 3.0 mph 11.0 mph 82 % 0.00 in
12:03 79.0 °F 72.7 °F 30.03 in East 6.0 mph 11.0 mph 81 % 0.00 in
12:08 79.0 °F 73.0 °F 30.02 in ESE 7.0 mph 9.0 mph 82 % 0.00 in
12:13 79.2 °F 73.2 °F 30.02 in SSE 5.0 mph 9.0 mph 82 % 0.00 in
12:18 79.2 °F 73.2 °F 30.02 in ESE 8.0 mph 11.0 mph 82 % 0.00 in
12:23 79.2 °F 73.2 °F 30.02 in ESE 6.0 mph 11.0 mph 82 % 0.00 in
12:28 79.3 °F 73.4 °F 30.02 in Calm   11.0 mph 82 % 0.00 in
12:33 79.3 °F 73.4 °F 30.02 in ESE 5.0 mph 13.0 mph 82 % 0.00 in
12:38 79.3 °F 73.0 °F 30.02 in ESE 3.0 mph 13.0 mph 81 % 0.00 in
12:43 79.3 °F 73.0 °F 30.02 in ESE 7.0 mph 13.0 mph 81 % 0.00 in
12:49 79.3 °F 73.4 °F 30.02 in ENE 9.0 mph 11.0 mph 82 % 0.00 in
12:54 79.2 °F 73.6 °F 30.02 in ESE 8.0 mph 10.0 mph 83 % 0.00 in
12:59 79.2 °F 73.9 °F 30.01 in SSE 6.0 mph 10.0 mph 84 % 0.00 in
13:04 78.8 °F 73.6 °F 30.01 in East 4.0 mph 10.0 mph 84 % 0.00 in
13:09 78.6 °F 73.8 °F 30.01 in SSE 1.0 mph 10.0 mph 85 % 0.00 in
13:14 79.0 °F 73.8 °F 30.01 in East 5.0 mph 10.0 mph 84 % 0.00 in
13:19 79.0 °F 73.8 °F 30.01 in SE 4.0 mph 11.0 mph 84 % 0.00 in
13:24 79.2 °F 73.9 °F 30.00 in SE 5.0 mph 12.0 mph 84 % 0.00 in
13:29 79.3 °F 73.8 °F 30.00 in North 2.0 mph 12.0 mph 83 % 0.00 in
13:34 79.2 °F 73.6 °F 30.00 in ENE 8.0 mph 12.0 mph 83 % 0.00 in
13:39 79.0 °F 73.4 °F 29.99 in East 7.0 mph 12.0 mph 83 % 0.00 in
13:44 79.2 °F 73.6 °F 29.99 in SE 6.0 mph 12.0 mph 83 % 0.00 in
13:49 79.2 °F 73.6 °F 29.98 in SE 5.0 mph 14.0 mph 83 % 0.00 in
13:54 78.8 °F 72.9 °F 29.98 in East 4.0 mph 14.0 mph 82 % 0.00 in
13:59 78.3 °F 73.0 °F 29.98 in SE 4.0 mph 14.0 mph 84 % 0.00 in
14:04 78.1 °F 72.9 °F 29.99 in SE 8.0 mph 14.0 mph 84 % 0.00 in
14:09 77.9 °F 73.0 °F 29.99 in WSW 2.0 mph 14.0 mph 85 % 0.00 in
14:14 77.7 °F 72.9 °F 29.99 in ENE 4.0 mph 14.0 mph 85 % 0.00 in
14:19 77.5 °F 73.0 °F 29.98 in East 3.0 mph 11.0 mph 86 % 0.00 in
14:24 77.7 °F 73.2 °F 29.98 in ESE 4.0 mph 12.0 mph 86 % 0.00 in
14:29 77.7 °F 73.2 °F 29.98 in ENE 4.0 mph 12.0 mph 86 % 0.00 in
14:34 77.7 °F 73.2 °F 29.97 in ESE 4.0 mph 12.0 mph 86 % 0.00 in
14:39 78.1 °F 73.6 °F 29.98 in ENE 6.0 mph 10.0 mph 86 % 0.00 in
14:44 78.1 °F 73.2 °F 29.98 in SE 2.0 mph 10.0 mph 85 % 0.00 in
14:49 77.9 °F 73.0 °F 29.97 in ESE 3.0 mph 10.0 mph 85 % 0.00 in
14:54 78.1 °F 73.2 °F 29.97 in ESE 3.0 mph 10.0 mph 85 % 0.00 in
14:59 78.4 °F 73.2 °F 29.97 in ESE 9.0 mph 10.0 mph 84 % 0.00 in
15:04 78.6 °F 73.4 °F 29.97 in ENE 7.0 mph 10.0 mph 84 % 0.00 in
15:09 79.0 °F 73.4 °F 29.97 in SE 4.0 mph 10.0 mph 83 % 0.00 in
15:14 79.0 °F 73.4 °F 29.96 in East 7.0 mph 10.0 mph 83 % 0.00 in
15:19 79.3 °F 73.4 °F 29.96 in ESE 7.0 mph 12.0 mph 82 % 0.00 in
15:24 79.2 °F 73.2 °F 29.96 in ESE 5.0 mph 12.0 mph 82 % 0.00 in
15:29 79.0 °F 73.4 °F 29.96 in ESE 5.0 mph 14.0 mph 83 % 0.00 in
15:34 78.4 °F 73.2 °F 29.96 in SE 5.0 mph 14.0 mph 84 % 0.00 in
15:39 78.8 °F 73.6 °F 29.96 in SE 5.0 mph 14.0 mph 84 % 0.00 in
15:44 79.3 °F 73.8 °F 29.96 in ENE 5.0 mph 12.0 mph 83 % 0.00 in
15:49 79.2 °F 73.2 °F 29.96 in SE 3.0 mph 12.0 mph 82 % 0.00 in
15:54 78.6 °F 73.0 °F 29.96 in East 5.0 mph 10.0 mph 83 % 0.00 in
15:59 78.8 °F 73.6 °F 29.96 in SSE 6.0 mph 13.0 mph 84 % 0.00 in
16:04 79.0 °F 73.4 °F 29.95 in SE 3.0 mph 13.0 mph 83 % 0.00 in
16:09 78.6 °F 73.4 °F 29.96 in ESE 7.0 mph 13.0 mph 84 % 0.00 in
16:14 78.6 °F 73.4 °F 29.95 in SSE 4.0 mph 11.0 mph 84 % 0.00 in
16:19 78.4 °F 73.2 °F 29.95 in SE 6.0 mph 15.0 mph 84 % 0.00 in
16:24 78.4 °F 73.2 °F 29.95 in ESE 6.0 mph 15.0 mph 84 % 0.00 in
16:29 78.1 °F 72.9 °F 29.95 in SSE 2.0 mph 15.0 mph 84 % 0.00 in
16:34 78.4 °F 73.2 °F 29.95 in ESE 7.0 mph 12.0 mph 84 % 0.00 in
16:39 78.4 °F 73.2 °F 29.94 in ESE 1.0 mph 12.0 mph 84 % 0.00 in
16:44 78.8 °F 73.6 °F 29.94 in NNE 3.0 mph 11.0 mph 84 % 0.00 in
16:49 78.6 °F 73.0 °F 29.94 in SE 4.0 mph 10.0 mph 83 % 0.00 in
16:54 78.3 °F 72.7 °F 29.94 in NNW 5.0 mph 10.0 mph 83 % 0.00 in
16:59 78.3 °F 73.0 °F 29.94 in ESE 5.0 mph 10.0 mph 84 % 0.00 in
17:04 78.6 °F 73.0 °F 29.94 in SSW 1.0 mph 10.0 mph 83 % 0.00 in
17:09 79.2 °F 73.6 °F 29.94 in ENE 2.0 mph 9.0 mph 83 % 0.00 in
17:14 79.3 °F 73.4 °F 29.94 in ESE 2.0 mph 9.0 mph 82 % 0.00 in
17:19 79.5 °F 72.9 °F 29.94 in ESE 8.0 mph 9.0 mph 80 % 0.00 in
17:20 79.5 °F 72.9 °F 29.94 in ENE 5.0 mph 8.0 mph 80 % 0.00 in
17:25 79.2 °F 72.9 °F 29.93 in NNE 4.0 mph 9.0 mph 81 % 0.00 in
17:30 79.5 °F 73.6 °F 29.93 in SE 1.0 mph 9.0 mph 82 % 0.00 in
17:35 79.5 °F 73.2 °F 29.93 in SE 2.0 mph 9.0 mph 81 % 0.00 in
17:40 79.0 °F 73.0 °F 29.93 in ENE 1.0 mph 8.0 mph 82 % 0.00 in
17:46 78.4 °F 72.9 °F 29.93 in East 4.0 mph 8.0 mph 83 % 0.00 in
17:51 78.1 °F 72.9 °F 29.93 in East 3.0 mph 9.0 mph 84 % 0.00 in
17:56 77.5 °F 72.3 °F 29.94 in ENE 4.0 mph 9.0 mph 84 % 0.00 in
18:01 77.0 °F 72.5 °F 29.94 in SSE 1.0 mph 10.0 mph 86 % 0.00 in
18:06 76.6 °F 72.9 °F 29.94 in Calm   10.0 mph 88 % 0.00 in
18:11 75.7 °F 72.3 °F 29.94 in East 12.0 mph 16.0 mph 89 % 0.00 in
18:14 75.4 °F 72.3 °F 29.94 in ESE 8.0 mph 16.0 mph 90 % 0.00 in
18:19 74.8 °F 72.0 °F 29.94 in SE 1.0 mph 16.0 mph 91 % 0.00 in
18:24 74.7 °F 72.1 °F 29.94 in ESE 3.0 mph 16.0 mph 92 % 0.00 in
18:29 74.5 °F 72.3 °F 29.94 in SE 4.0 mph 12.0 mph 93 % 0.00 in
18:34 74.5 °F 72.3 °F 29.93 in ESE 3.0 mph 9.0 mph 93 % 0.00 in
18:39 74.5 °F 72.3 °F 29.93 in ESE 3.0 mph 11.0 mph 93 % 0.00 in
18:44 74.7 °F 72.5 °F 29.93 in East 3.0 mph 11.0 mph 93 % 0.00 in
18:49 74.7 °F 72.5 °F 29.93 in ENE 3.0 mph 11.0 mph 93 % 0.00 in
18:54 74.7 °F 72.5 °F 29.93 in Calm   8.0 mph 93 % 0.00 in
18:59 74.8 °F 72.7 °F 29.93 in Calm   8.0 mph 93 % 0.00 in
19:04 74.8 °F 72.7 °F 29.93 in ESE 3.0 mph 8.0 mph 93 % 0.00 in
19:14 74.8 °F 72.7 °F 29.93 in SE 3.0 mph 10.0 mph 93 % 0.00 in
19:19 74.8 °F 72.7 °F 29.93 in ESE 2.0 mph 10.0 mph 93 % 0.00 in
19:24 74.8 °F 72.7 °F 29.93 in ESE 3.0 mph 8.0 mph 93 % 0.00 in
19:29 75.0 °F 72.9 °F 29.93 in ESE 6.0 mph 11.0 mph 93 % 0.00 in
19:34 75.0 °F 72.9 °F 29.93 in ESE 4.0 mph 11.0 mph 93 % 0.00 in
19:39 74.8 °F 72.7 °F 29.94 in East 2.0 mph 11.0 mph 93 % 0.00 in
19:44 74.8 °F 72.7 °F 29.94 in ESE 4.0 mph 9.0 mph 93 % 0.00 in
19:49 74.8 °F 72.7 °F 29.94 in East 3.0 mph 9.0 mph 93 % 0.00 in
19:54 75.0 °F 72.5 °F 29.94 in East 7.0 mph 9.0 mph 92 % 0.00 in
19:59 75.0 °F 72.5 °F 29.94 in SSE 6.0 mph 8.0 mph 92 % 0.00 in
20:04 75.0 °F 72.5 °F 29.94 in ESE 3.0 mph 9.0 mph 92 % 0.00 in
20:09 75.0 °F 72.5 °F 29.94 in ESE 1.0 mph 9.0 mph 92 % 0.00 in
20:14 75.0 °F 72.5 °F 29.94 in ESE 11.0 mph 11.0 mph 92 % 0.00 in
20:19 75.0 °F 72.5 °F 29.94 in SE 3.0 mph 13.0 mph 92 % 0.00 in
20:24 74.8 °F 72.0 °F 29.94 in SE 4.0 mph 13.0 mph 91 % 0.00 in
20:30 74.8 °F 72.3 °F 29.94 in East 3.0 mph 13.0 mph 92 % 0.00 in
20:35 74.7 °F 72.1 °F 29.94 in East 5.0 mph 10.0 mph 92 % 0.00 in
20:40 74.5 °F 72.0 °F 29.94 in East 1.0 mph 9.0 mph 92 % 0.00 in
20:45 74.3 °F 71.8 °F 29.94 in SE 2.0 mph 9.0 mph 92 % 0.00 in
20:50 74.1 °F 71.6 °F 29.94 in Calm   10.0 mph 92 % 0.00 in
20:51 74.1 °F 71.6 °F 29.94 in South 1.0 mph 10.0 mph 92 % 0.00 in
20:55 73.9 °F 71.8 °F 29.94 in SSE 1.0 mph 10.0 mph 93 % 0.00 in
21:00 73.9 °F 71.8 °F 29.94 in SE 4.0 mph 9.0 mph 93 % 0.00 in
21:05 73.9 °F 71.8 °F 29.95 in SE 3.0 mph 9.0 mph 93 % 0.00 in
21:10 74.1 °F 72.0 °F 29.95 in East 4.0 mph 9.0 mph 93 % 0.00 in
21:15 74.1 °F 72.0 °F 29.95 in ESE 3.0 mph 7.0 mph 93 % 0.00 in
21:20 74.1 °F 72.0 °F 29.95 in ENE 2.0 mph 6.0 mph 93 % 0.00 in
21:25 74.1 °F 72.0 °F 29.95 in SSE 2.0 mph 6.0 mph 93 % 0.00 in
21:30 74.1 °F 72.0 °F 29.95 in ESE 2.0 mph 5.0 mph 93 % 0.00 in
21:35 74.3 °F 72.1 °F 29.95 in ENE 1.0 mph 6.0 mph 93 % 0.00 in
21:40 74.3 °F 72.1 °F 29.95 in East 2.0 mph 6.0 mph 93 % 0.00 in
21:46 74.1 °F 72.0 °F 29.95 in ENE 2.0 mph 6.0 mph 93 % 0.00 in
21:51 74.1 °F 72.0 °F 29.95 in ENE 2.0 mph 4.0 mph 93 % 0.00 in
21:56 74.1 °F 72.0 °F 29.95 in Calm   5.0 mph 93 % 0.00 in
22:01 74.1 °F 72.0 °F 29.96 in Calm   5.0 mph 93 % 0.00 in
22:06 73.9 °F 72.1 °F 29.96 in Calm   5.0 mph 94 % 0.00 in
22:11 73.9 °F 72.1 °F 29.96 in East 1.0 mph 2.0 mph 94 % 0.00 in
22:17 74.1 °F 72.3 °F 29.96 in Calm   3.0 mph 94 % 0.00 in
22:19 74.1 °F 72.3 °F 29.96 in Calm   3.0 mph 94 % 0.00 in
22:21 74.1 °F 72.3 °F 29.96 in Calm   3.0 mph 94 % 0.00 in
22:27 74.1 °F 72.3 °F 29.96 in SE 1.0 mph 3.0 mph 94 % 0.00 in
22:28 74.1 °F 72.3 °F 29.96 in Calm   3.0 mph 94 % 0.00 in
22:31 74.1 °F 72.3 °F 29.96 in SE 2.0 mph 3.0 mph 94 % 0.00 in
22:36 74.1 °F 72.3 °F 29.96 in Calm   3.0 mph 94 % 0.00 in
22:41 74.1 °F 72.3 °F 29.96 in Calm   4.0 mph 94 % 0.00 in
22:46 74.1 °F 72.3 °F 29.96 in East 1.0 mph 4.0 mph 94 % 0.00 in
22:52 74.1 °F 72.3 °F 29.96 in ESE 1.0 mph 4.0 mph 94 % 0.00 in
22:56 74.1 °F 72.3 °F 29.96 in Calm   3.0 mph 94 % 0.00 in
23:02 74.1 °F 72.3 °F 29.96 in SE 1.0 mph 3.0 mph 94 % 0.00 in
23:07 74.1 °F 72.3 °F 29.96 in Calm   3.0 mph 94 % 0.00 in
23:12 74.1 °F 72.3 °F 29.96 in ESE 1.0 mph 3.0 mph 94 % 0.00 in
23:17 74.1 °F 72.3 °F 29.96 in Calm   3.0 mph 94 % 0.00 in
23:22 73.9 °F 72.5 °F 29.96 in East 2.0 mph 3.0 mph 95 % 0.00 in
23:27 73.9 °F 72.5 °F 29.96 in ESE 2.0 mph 3.0 mph 95 % 0.00 in
23:32 73.9 °F 72.5 °F 29.95 in Calm   3.0 mph 95 % 0.00 in
23:37 73.9 °F 72.5 °F 29.95 in Calm   3.0 mph 95 % 0.00 in
23:42 73.8 °F 72.3 °F 29.96 in Calm   3.0 mph 95 % 0.00 in
23:47 73.8 °F 72.3 °F 29.96 in ESE 1.0 mph 3.0 mph 95 % 0.00 in
23:52 73.6 °F 72.1 °F 29.95 in Calm   3.0 mph 95 % 0.00 in
23:57 73.6 °F 72.1 °F 29.96 in Calm   3.0 mph 95 % 0.00 in
Spring, Texas: Villages of Bridgestone
Compliments of Weather Underground - 3.25 mb

Script developed by  Jim McMurry - jmcmurry@mwt.net Adapted for the template by  Wim van der Kuil - Leuven-Template.eu

You find our weather info also at:

UK Metoffice

WeatherCloud

Weather Underground

Mid-South Weather Network

AWEKAS

Citizen Weather Observer Program (CWOP)

HAMweather, WeatherForYou, PWS Weather

Equipment we use:

Weather-station
Davis Vantage Vue

Weather-program
Meteohub

Weather-server
Debian 7.9 x86 (Guest)

Provider
DreamHost

Davis Vantage Vue

Meteohub

Debian 7.9 x86 (Guest)

DreamHost